Time;durP1;ratioP1;P1;durP2;ratioP2;P2;SDS_P1;SDS_P2;PMS_P1;PMS_P2;Temp;Humidity;BMP_temperature;BMP_pressure;BME280_temperature;BME280_humidity;BME280_pressure;Samples;Min_cycle;Max_cycle;Signal;HPM_P1;HPM_P2
2022/01/19 00:01:08;;;;;;;1.10;1.10;;;2.50;99.90;;;;;;5012573;28;20312;-62
2022/01/19 00:03:36;;;;;;;1.03;1.03;;;2.50;99.90;;;;;;5014255;28;20215;-61
2022/01/19 00:06:03;;;;;;;1.30;1.30;;;2.50;99.90;;;;;;5012636;28;20288;-63
2022/01/19 00:08:31;;;;;;;1.10;1.10;;;2.40;99.90;;;;;;5014202;28;20241;-62
2022/01/19 00:10:59;;;;;;;1.30;1.20;;;2.50;99.90;;;;;;5012497;28;20300;-62
2022/01/19 00:13:26;;;;;;;1.10;1.10;;;2.50;99.90;;;;;;5016260;28;20296;-63
2022/01/19 00:15:53;;;;;;;1.10;1.10;;;2.60;99.90;;;;;;5013391;28;20364;-62
2022/01/19 00:18:23;;;;;;;1.20;1.20;;;2.60;99.90;;;;;;5016684;28;20288;-62
2022/01/19 00:20:51;;;;;;;1.10;1.10;;;2.60;99.90;;;;;;5015906;28;20296;-63
2022/01/19 00:23:19;;;;;;;1.20;1.20;;;2.60;99.90;;;;;;5016377;28;20591;-63
2022/01/19 00:25:48;;;;;;;1.30;1.20;;;2.60;99.90;;;;;;5016291;28;20208;-62
2022/01/19 00:28:15;;;;;;;1.10;1.10;;;2.60;99.90;;;;;;5015988;28;20233;-62
2022/01/19 00:30:42;;;;;;;1.40;1.30;;;2.70;99.90;;;;;;5014348;28;20307;-64
2022/01/19 00:33:09;;;;;;;1.20;1.20;;;2.70;99.90;;;;;;5015710;28;20201;-63
2022/01/19 00:35:37;;;;;;;1.40;1.40;;;2.70;99.90;;;;;;5014473;28;20201;-63
2022/01/19 00:38:04;;;;;;;1.30;1.30;;;2.70;99.90;;;;;;5016060;28;20204;-63
2022/01/19 00:40:31;;;;;;;1.40;1.30;;;2.70;99.90;;;;;;5017509;28;20315;-63
2022/01/19 00:42:59;;;;;;;1.30;1.20;;;2.70;99.90;;;;;;5016559;28;20776;-62
2022/01/19 00:45:27;;;;;;;1.60;1.50;;;2.70;99.90;;;;;;5017039;28;20309;-63
2022/01/19 00:47:54;;;;;;;1.63;1.57;;;2.90;99.90;;;;;;5016146;28;20285;-63
2022/01/19 00:50:22;;;;;;;1.40;1.40;;;3.10;99.90;;;;;;5009428;28;20237;-65
2022/01/19 00:52:51;;;;;;;1.30;1.30;;;3.10;99.90;;;;;;5013137;28;20292;-62
2022/01/19 00:55:19;;;;;;;1.43;1.40;;;3.10;99.90;;;;;;5014467;28;20213;-63
2022/01/19 00:57:46;;;;;;;1.40;1.30;;;3.00;99.90;;;;;;5026473;28;20220;-62
2022/01/19 01:00:19;;;;;;;1.20;1.20;;;3.10;99.90;;;;;;5027122;28;20229;-63
2022/01/19 01:02:46;;;;;;;1.40;1.40;;;3.10;99.90;;;;;;5027335;28;20301;-62
2022/01/19 01:05:13;;;;;;;1.30;1.30;;;3.10;99.90;;;;;;5013119;28;20304;-62
2022/01/19 01:07:41;;;;;;;1.47;1.37;;;3.10;99.90;;;;;;5012288;28;20215;-62
2022/01/19 01:10:09;;;;;;;1.20;1.20;;;3.20;99.90;;;;;;5013268;28;20307;-62
2022/01/19 01:12:45;;;;;;;1.37;1.27;;;3.30;99.90;;;;;;5011533;28;20283;-61
2022/01/19 01:15:37;;;;;;;1.70;1.60;;;3.40;99.90;;;;;;5010928;28;20734;-63
2022/01/19 01:18:19;;;;;;;1.20;1.20;;;3.40;99.90;;;;;;4998625;28;20305;-62
2022/01/19 01:20:48;;;;;;;1.10;1.10;;;3.50;99.90;;;;;;4997531;28;20762;-62
2022/01/19 01:23:16;;;;;;;1.33;1.33;;;3.50;99.90;;;;;;4998073;28;20308;-62
2022/01/19 01:25:44;;;;;;;1.20;1.20;;;3.50;99.90;;;;;;5000920;28;20299;-62
2022/01/19 01:28:11;;;;;;;1.20;1.20;;;3.60;99.90;;;;;;4997697;28;20285;-62
2022/01/19 01:30:38;;;;;;;1.20;1.20;;;3.60;99.90;;;;;;5000103;28;20225;-63
2022/01/19 01:33:06;;;;;;;1.30;1.30;;;3.60;99.90;;;;;;5001948;28;20289;-62
2022/01/19 01:35:34;;;;;;;1.40;1.40;;;3.60;99.90;;;;;;5016481;28;20300;-62
2022/01/19 01:38:01;;;;;;;1.37;1.37;;;3.60;99.90;;;;;;5012031;28;20601;-62
2022/01/19 01:40:31;;;;;;;1.30;1.30;;;3.60;99.90;;;;;;4999375;28;20226;-62
2022/01/19 01:42:59;;;;;;;1.10;1.10;;;3.60;99.90;;;;;;4996570;28;20206;-62
2022/01/19 01:45:28;;;;;;;1.20;1.20;;;3.60;99.90;;;;;;4996969;28;20236;-62
2022/01/19 01:48:04;;;;;;;1.20;1.20;;;3.60;99.90;;;;;;4995653;28;20209;-62
2022/01/19 01:53:29;;;;;;;1.20;1.20;;;3.50;99.90;;;;;;4996267;28;20706;-64
2022/01/19 01:55:58;;;;;;;1.10;1.10;;;3.50;99.90;;;;;;4998219;28;20206;-62
2022/01/19 01:58:26;;;;;;;1.20;1.20;;;3.50;99.90;;;;;;4997871;28;20635;-63
2022/01/19 02:00:53;;;;;;;1.00;1.00;;;3.50;99.90;;;;;;5000029;28;20217;-62
2022/01/19 02:03:20;;;;;;;1.10;1.10;;;3.40;99.90;;;;;;4997888;28;20756;-62
2022/01/19 02:06:27;;;;;;;1.30;1.30;;;3.40;99.90;;;;;;5006953;28;20207;-62
2022/01/19 02:09:00;;;;;;;1.20;1.20;;;3.30;99.90;;;;;;5001310;28;20210;-61
2022/01/19 02:15:49;;;;;;;1.10;1.10;;;3.30;99.90;;;;;;5005556;28;20268;-62
2022/01/19 02:23:00;;;;;;;1.10;1.10;;;3.10;99.90;;;;;;5000228;28;20341;-62
2022/01/19 02:25:30;;;;;;;1.20;1.20;;;3.10;99.90;;;;;;5003115;28;20217;-62
2022/01/19 02:36:38;;;;;;;1.43;1.33;;;2.90;99.90;;;;;;5030895;28;20215;-62
2022/01/19 02:41:50;;;;;;;1.13;1.13;;;2.60;99.90;;;;;;5010777;28;20328;-62
2022/01/19 02:44:32;;;;;;;1.03;1.03;;;2.60;99.90;;;;;;5008404;28;20743;-64
2022/01/19 02:49:40;;;;;;;1.20;1.20;;;2.40;99.90;;;;;;5011388;28;20225;-62
2022/01/19 02:52:09;;;;;;;1.20;1.20;;;2.30;99.90;;;;;;5011563;28;20296;-61
2022/01/19 02:54:36;;;;;;;1.20;1.20;;;2.30;99.90;;;;;;5010792;28;20251;-63
2022/01/19 02:57:03;;;;;;;1.10;1.10;;;2.30;99.90;;;;;;5015598;28;20209;-63
2022/01/19 02:59:50;;;;;;;1.10;1.10;;;2.20;99.90;;;;;;5011803;28;20259;-62
2022/01/19 03:10:45;;;;;;;1.07;1.07;;;2.10;99.90;;;;;;4988566;28;20555;-63
2022/01/19 03:13:11;;;;;;;1.40;1.30;;;2.10;99.90;;;;;;4988818;28;20212;-63
2022/01/19 03:15:38;;;;;;;1.10;1.10;;;2.10;99.90;;;;;;4997808;28;20213;-61
2022/01/19 03:18:05;;;;;;;1.13;1.10;;;2.00;99.90;;;;;;5010260;28;20205;-62
2022/01/19 03:20:32;;;;;;;1.10;1.10;;;2.00;99.90;;;;;;5010738;28;20551;-63
2022/01/19 03:23:03;;;;;;;1.10;1.10;;;2.00;99.90;;;;;;5010842;28;20208;-63
2022/01/19 03:25:36;;;;;;;1.30;1.30;;;2.00;99.90;;;;;;5010590;28;20201;-63
2022/01/19 03:28:03;;;;;;;1.20;1.20;;;1.90;99.90;;;;;;5011085;28;20225;-63
2022/01/19 03:30:30;;;;;;;1.47;1.37;;;1.90;99.90;;;;;;5010359;28;20235;-63
2022/01/19 03:32:57;;;;;;;1.20;1.20;;;1.90;99.90;;;;;;5011013;28;20344;-63
2022/01/19 03:35:24;;;;;;;1.20;1.20;;;1.90;99.90;;;;;;5010975;28;20270;-62
2022/01/19 03:37:51;;;;;;;1.13;1.13;;;2.00;99.90;;;;;;5011060;28;20237;-62
2022/01/19 03:40:19;;;;;;;0.97;0.97;;;2.00;99.90;;;;;;5010787;28;20248;-63
2022/01/19 03:42:46;;;;;;;1.20;1.20;;;2.00;99.90;;;;;;5010630;28;20292;-62
2022/01/19 03:45:13;;;;;;;1.30;1.30;;;2.00;99.90;;;;;;5010071;28;20300;-62
2022/01/19 03:47:44;;;;;;;1.30;1.30;;;2.00;99.90;;;;;;5012260;28;20206;-62
2022/01/19 03:50:12;;;;;;;1.20;1.20;;;2.00;99.90;;;;;;5014521;28;20319;-62
2022/01/19 03:52:39;;;;;;;1.20;1.20;;;1.90;99.90;;;;;;5014292;28;20296;-63
2022/01/19 03:55:08;;;;;;;1.40;1.30;;;1.90;99.90;;;;;;5013988;28;20209;-62
2022/01/19 03:57:36;;;;;;;1.27;1.27;;;1.90;99.90;;;;;;5014094;28;20228;-62
2022/01/19 04:00:06;;;;;;;1.40;1.30;;;1.90;99.90;;;;;;5014134;28;20317;-61
2022/01/19 04:02:35;;;;;;;1.23;1.23;;;1.90;99.90;;;;;;5014158;28;20285;-63
2022/01/19 04:05:06;;;;;;;1.30;1.30;;;1.80;99.90;;;;;;5013534;28;20904;-62
2022/01/19 04:07:33;;;;;;;1.10;1.10;;;1.80;99.90;;;;;;5014100;28;20563;-62
2022/01/19 04:10:00;;;;;;;1.10;1.10;;;1.80;99.90;;;;;;5013542;28;20317;-63
2022/01/19 04:12:42;;;;;;;1.40;1.33;;;1.80;99.90;;;;;;5014045;28;20279;-61
2022/01/19 04:15:12;;;;;;;1.33;1.30;;;1.80;99.90;;;;;;5013548;28;20696;-62
2022/01/19 04:17:45;;;;;;;1.27;1.20;;;1.70;99.90;;;;;;5013938;28;20632;-62
2022/01/19 04:20:12;;;;;;;1.33;1.23;;;1.70;99.90;;;;;;5013899;28;20231;-63
2022/01/19 04:22:39;;;;;;;1.10;1.10;;;1.60;99.90;;;;;;5013449;28;20296;-62
2022/01/19 04:25:07;;;;;;;1.10;1.10;;;1.60;99.90;;;;;;5013621;28;20550;-62
2022/01/19 04:27:35;;;;;;;1.00;1.00;;;1.60;99.90;;;;;;5013893;28;20288;-62
2022/01/19 04:30:07;;;;;;;1.30;1.20;;;1.60;99.90;;;;;;5013384;28;20329;-63
2022/01/19 04:32:42;;;;;;;1.37;1.27;;;1.50;99.90;;;;;;5013975;28;20240;-63
2022/01/19 04:35:12;;;;;;;1.40;1.40;;;1.60;99.90;;;;;;5013434;28;20204;-63
2022/01/19 04:54:53;;;;;;;1.50;1.40;;;1.50;99.90;;;;;;5001859;28;20193;-64
2022/01/19 05:03:15;;;;;;;1.10;1.10;;;1.40;99.90;;;;;;5012861;28;20188;-62
2022/01/19 05:05:50;;;;;;;1.20;1.20;;;1.50;99.90;;;;;;5012970;28;20260;-62
2022/01/19 05:08:33;;;;;;;1.27;1.27;;;1.40;99.90;;;;;;5012483;28;20292;-63
2022/01/19 05:13:50;;;;;;;1.37;1.37;;;1.40;99.90;;;;;;5000380;28;20220;-63
2022/01/19 05:16:18;;;;;;;1.30;1.30;;;1.40;99.90;;;;;;5012990;28;20537;-63
2022/01/19 05:18:46;;;;;;;1.40;1.40;;;1.30;99.90;;;;;;5012987;28;20687;-61
2022/01/19 05:21:14;;;;;;;1.50;1.40;;;1.30;99.90;;;;;;5013036;28;20256;-62
2022/01/19 05:23:41;;;;;;;1.27;1.27;;;1.20;99.90;;;;;;5012853;28;20296;-62
2022/01/19 05:26:08;;;;;;;1.30;1.30;;;1.20;99.90;;;;;;5012478;28;20213;-62
2022/01/19 05:28:35;;;;;;;1.50;1.40;;;1.20;99.90;;;;;;5013390;28;20301;-63
2022/01/19 05:31:02;;;;;;;1.27;1.27;;;1.30;99.90;;;;;;5012357;28;20235;-62
2022/01/19 05:33:29;;;;;;;1.20;1.20;;;1.40;99.90;;;;;;5013092;28;20215;-63
2022/01/19 05:35:56;;;;;;;1.60;1.50;;;1.40;99.90;;;;;;5013377;28;20288;-62
2022/01/19 05:38:25;;;;;;;1.53;1.53;;;1.30;99.90;;;;;;5013301;28;20241;-62
2022/01/19 05:40:51;;;;;;;1.60;1.50;;;1.40;99.90;;;;;;5014156;28;20224;-63
2022/01/19 05:43:18;;;;;;;1.20;1.20;;;1.40;99.90;;;;;;5014958;28;20240;-62
2022/01/19 05:45:45;;;;;;;1.33;1.30;;;1.40;99.90;;;;;;5020923;28;20281;-63
2022/01/19 05:48:12;;;;;;;1.67;1.57;;;1.30;99.90;;;;;;5022041;28;20892;-61
2022/01/19 05:50:41;;;;;;;1.43;1.40;;;1.30;99.90;;;;;;5018966;28;20229;-62
2022/01/19 05:53:08;;;;;;;1.43;1.33;;;1.20;99.90;;;;;;5021244;28;20284;-64
2022/01/19 05:55:36;;;;;;;1.60;1.50;;;1.10;99.90;;;;;;5021984;28;20241;-62
2022/01/19 05:58:03;;;;;;;1.50;1.40;;;1.00;99.90;;;;;;5017603;28;20648;-61
2022/01/19 06:00:30;;;;;;;1.20;1.20;;;0.90;99.90;;;;;;5016030;28;20256;-62
2022/01/19 06:02:57;;;;;;;1.10;1.10;;;0.90;99.90;;;;;;5015690;28;20241;-62
2022/01/19 06:05:24;;;;;;;1.20;1.10;;;0.90;99.90;;;;;;5013630;28;20259;-61
2022/01/19 06:08:08;;;;;;;1.20;1.20;;;0.90;99.90;;;;;;5014903;28;20644;-62
2022/01/19 06:10:45;;;;;;;1.40;1.30;;;0.90;99.90;;;;;;5013501;28;20699;-62
2022/01/19 06:13:14;;;;;;;1.60;1.50;;;0.90;99.90;;;;;;5014460;28;20727;-63
2022/01/19 06:15:41;;;;;;;1.30;1.30;;;1.00;99.90;;;;;;5013071;28;20213;-62
2022/01/19 06:18:08;;;;;;;1.20;1.20;;;1.10;99.90;;;;;;5013043;28;20213;-63
2022/01/19 06:20:35;;;;;;;1.37;1.37;;;1.20;99.90;;;;;;5012871;28;20317;-62
2022/01/19 06:23:02;;;;;;;1.50;1.40;;;1.20;99.90;;;;;;5012332;28;20292;-62
2022/01/19 06:25:29;;;;;;;1.50;1.40;;;1.20;99.90;;;;;;5011641;28;20205;-62
2022/01/19 06:27:57;;;;;;;1.13;1.13;;;1.10;99.90;;;;;;5012009;28;20292;-61
2022/01/19 06:30:24;;;;;;;1.40;1.30;;;1.10;99.90;;;;;;5012187;28;20248;-62
2022/01/19 06:32:51;;;;;;;1.10;1.10;;;1.10;99.90;;;;;;5014836;28;20319;-61
2022/01/19 06:35:18;;;;;;;1.60;1.50;;;1.10;99.90;;;;;;5020043;28;20209;-63
2022/01/19 06:37:45;;;;;;;1.37;1.30;;;1.20;99.90;;;;;;5032281;28;20201;-64
2022/01/19 06:40:14;;;;;;;1.30;1.30;;;1.10;99.90;;;;;;5027538;28;20247;-62
2022/01/19 06:42:42;;;;;;;1.37;1.33;;;1.10;99.90;;;;;;5027486;28;20240;-62
2022/01/19 06:45:11;;;;;;;1.70;1.60;;;1.10;99.90;;;;;;5031200;28;20294;-63
2022/01/19 06:47:39;;;;;;;1.43;1.33;;;1.10;99.90;;;;;;5014039;28;20204;-62
2022/01/19 06:50:08;;;;;;;1.30;1.30;;;1.00;99.90;;;;;;5018669;28;20307;-61
2022/01/19 06:52:35;;;;;;;1.30;1.20;;;1.10;99.90;;;;;;5016633;28;20304;-63
2022/01/19 06:55:02;;;;;;;1.50;1.40;;;1.00;99.90;;;;;;5016538;28;20286;-63
2022/01/19 06:57:29;;;;;;;1.57;1.47;;;1.00;99.90;;;;;;5004824;28;20206;-61
2022/01/19 06:59:56;;;;;;;1.50;1.40;;;1.00;99.90;;;;;;4997448;28;20296;-62
2022/01/19 07:02:24;;;;;;;1.37;1.37;;;0.90;99.90;;;;;;4997549;28;20337;-62
2022/01/19 07:04:51;;;;;;;1.53;1.43;;;0.90;99.90;;;;;;4997990;28;20202;-62
2022/01/19 07:07:19;;;;;;;1.70;1.60;;;0.90;99.90;;;;;;4994048;28;20288;-61
2022/01/19 07:09:47;;;;;;;1.33;1.33;;;0.90;99.90;;;;;;5004635;28;20201;-62
2022/01/19 07:12:16;;;;;;;1.40;1.40;;;0.90;99.90;;;;;;5002533;28;20232;-61
2022/01/19 07:14:43;;;;;;;1.70;1.60;;;0.90;99.90;;;;;;5003885;28;20201;-62
2022/01/19 07:17:10;;;;;;;1.60;1.50;;;1.00;99.90;;;;;;5005502;28;20296;-62
2022/01/19 07:19:38;;;;;;;1.50;1.47;;;0.90;99.90;;;;;;5005639;28;20288;-62
2022/01/19 07:22:05;;;;;;;1.70;1.60;;;0.90;99.90;;;;;;5015301;28;20300;-61
2022/01/19 07:24:33;;;;;;;1.87;1.77;;;0.90;99.90;;;;;;5016441;28;20206;-61
2022/01/19 07:27:01;;;;;;;1.20;1.20;;;0.90;99.90;;;;;;5009742;28;20691;-62
2022/01/19 07:29:28;;;;;;;1.50;1.40;;;0.90;99.90;;;;;;5010731;28;20209;-61
2022/01/19 07:31:57;;;;;;;1.30;1.30;;;0.90;99.90;;;;;;5004799;28;20261;-61
2022/01/19 07:34:25;;;;;;;1.30;1.30;;;0.80;99.90;;;;;;5010785;28;20763;-61
2022/01/19 07:36:53;;;;;;;1.70;1.60;;;0.80;99.90;;;;;;5011882;28;20304;-59
2022/01/19 07:39:20;;;;;;;1.47;1.37;;;1.80;99.90;;;;;;5008331;28;20312;-62
2022/01/19 07:41:47;;;;;;;1.40;1.40;;;2.20;99.90;;;;;;5008090;28;20216;-62
2022/01/19 07:44:14;;;;;;;1.40;1.30;;;2.10;99.90;;;;;;5003793;28;20293;-61
2022/01/19 07:46:41;;;;;;;1.57;1.50;;;1.70;99.90;;;;;;5004805;28;20211;-61
2022/01/19 07:49:08;;;;;;;1.30;1.30;;;1.60;99.90;;;;;;5007650;28;20625;-61
2022/01/19 07:51:35;;;;;;;1.70;1.60;;;1.50;99.90;;;;;;5004937;28;20325;-61
2022/01/19 07:54:04;;;;;;;1.60;1.50;;;1.40;99.90;;;;;;5009958;28;20201;-61
2022/01/19 07:56:30;;;;;;;2.10;2.00;;;1.40;99.90;;;;;;5005270;28;20265;-62
2022/01/19 07:58:57;;;;;;;1.90;1.80;;;1.40;99.90;;;;;;5007737;28;20205;-62
2022/01/19 08:01:26;;;;;;;1.50;1.40;;;1.30;99.90;;;;;;5010169;28;20304;-61
2022/01/19 08:03:52;;;;;;;2.43;2.33;;;1.30;99.90;;;;;;5016877;28;20204;-62
2022/01/19 08:06:19;;;;;;;2.73;2.53;;;1.30;99.90;;;;;;5010772;28;20197;-62
2022/01/19 08:08:46;;;;;;;2.97;2.77;;;1.30;99.90;;;;;;5014240;28;20571;-62
2022/01/19 08:11:15;;;;;;;2.63;2.53;;;1.30;99.90;;;;;;5009914;28;20295;-61
2022/01/19 08:13:42;;;;;;;2.27;2.17;;;1.30;99.90;;;;;;5010562;28;20287;-62
2022/01/19 08:16:09;;;;;;;2.23;2.07;;;1.30;99.90;;;;;;5005702;28;20657;-62
2022/01/19 08:18:36;;;;;;;1.60;1.50;;;1.40;99.90;;;;;;5004965;28;20315;-61
2022/01/19 08:21:03;;;;;;;1.80;1.70;;;1.50;99.90;;;;;;5007964;28;20332;-62
2022/01/19 08:23:30;;;;;;;1.70;1.60;;;1.60;99.90;;;;;;5008390;28;20331;-61
2022/01/19 08:25:57;;;;;;;1.50;1.50;;;1.60;99.90;;;;;;5007225;28;20315;-61
2022/01/19 08:28:25;;;;;;;2.00;1.90;;;1.60;99.90;;;;;;5012883;28;20296;-61
2022/01/19 08:30:52;;;;;;;1.43;1.43;;;1.70;99.90;;;;;;5011632;28;20296;-63
2022/01/19 08:33:19;;;;;;;1.33;1.30;;;1.80;99.90;;;;;;5016722;28;20212;-61
2022/01/19 08:35:46;;;;;;;1.47;1.47;;;1.80;99.90;;;;;;5013309;28;20647;-62
2022/01/19 08:38:13;;;;;;;1.70;1.60;;;2.00;99.90;;;;;;5013520;28;20296;-62
2022/01/19 08:40:40;;;;;;;1.53;1.43;;;2.00;99.90;;;;;;5015217;28;20248;-61
2022/01/19 08:43:07;;;;;;;1.60;1.50;;;2.10;99.90;;;;;;5015045;28;20947;-62
2022/01/19 08:45:35;;;;;;;1.40;1.40;;;2.20;99.90;;;;;;5015362;28;20223;-61
2022/01/19 08:48:03;;;;;;;1.43;1.40;;;2.20;99.90;;;;;;5015418;28;20204;-61
2022/01/19 08:50:30;;;;;;;1.30;1.30;;;2.30;99.90;;;;;;5015406;28;20399;-61
2022/01/19 08:52:57;;;;;;;1.40;1.30;;;2.40;99.90;;;;;;5014481;28;20268;-61
2022/01/19 08:55:24;;;;;;;1.30;1.30;;;2.50;99.90;;;;;;5010770;28;20554;-61
2022/01/19 08:57:51;;;;;;;1.43;1.33;;;2.60;99.90;;;;;;5013096;28;20292;-62
2022/01/19 09:00:20;;;;;;;1.70;1.60;;;2.70;99.90;;;;;;5014354;28;20221;-62
2022/01/19 09:02:48;;;;;;;1.50;1.40;;;2.90;99.90;;;;;;5010493;28;20201;-63
2022/01/19 09:05:16;;;;;;;1.40;1.40;;;3.00;99.90;;;;;;5012294;28;20216;-62
2022/01/19 09:07:43;;;;;;;1.27;1.23;;;3.30;99.90;;;;;;5008810;28;20216;-61
2022/01/19 09:10:12;;;;;;;1.67;1.57;;;3.40;99.90;;;;;;5008076;28;20308;-61
2022/01/19 09:12:39;;;;;;;1.30;1.30;;;3.50;99.90;;;;;;5011091;28;20232;-62
2022/01/19 09:15:08;;;;;;;1.40;1.30;;;3.70;99.90;;;;;;5013644;28;20232;-62
2022/01/19 09:17:35;;;;;;;1.57;1.47;;;3.80;99.90;;;;;;5008543;28;20577;-62
2022/01/19 09:20:06;;;;;;;1.50;1.40;;;3.90;99.90;;;;;;5013891;28;20289;-62
2022/01/19 09:22:33;;;;;;;1.47;1.37;;;3.90;99.90;;;;;;5014713;28;20205;-62
2022/01/19 09:25:00;;;;;;;1.60;1.50;;;4.10;99.90;;;;;;5012158;28;20201;-63
2022/01/19 09:27:27;;;;;;;1.50;1.40;;;4.30;99.90;;;;;;5014108;28;20304;-61
2022/01/19 09:29:54;;;;;;;1.40;1.40;;;4.40;99.90;;;;;;5013554;28;20292;-61
2022/01/19 09:32:20;;;;;;;1.60;1.50;;;4.50;99.90;;;;;;5014000;28;20221;-62
2022/01/19 09:34:54;;;;;;;1.37;1.37;;;4.60;99.90;;;;;;5014103;28;20268;-62
2022/01/19 09:37:23;;;;;;;1.60;1.50;;;4.70;99.90;;;;;;5013868;28;20209;-62
2022/01/19 09:39:50;;;;;;;1.20;1.20;;;4.70;99.90;;;;;;5012593;28;20280;-62
2022/01/19 09:42:17;;;;;;;1.20;1.20;;;4.80;99.90;;;;;;5015935;28;20208;-63
2022/01/19 09:44:44;;;;;;;1.30;1.30;;;4.90;99.90;;;;;;5012623;28;20307;-61
2022/01/19 09:47:11;;;;;;;1.43;1.33;;;5.00;99.90;;;;;;5012066;28;20348;-62
2022/01/19 09:49:38;;;;;;;1.70;1.60;;;5.10;99.90;;;;;;5022542;28;20678;-62
2022/01/19 09:52:06;;;;;;;1.37;1.30;;;5.20;99.90;;;;;;5009432;28;20323;-62
2022/01/19 09:54:35;;;;;;;1.53;1.43;;;5.30;99.90;;;;;;5019148;28;20271;-61
2022/01/19 09:57:02;;;;;;;1.33;1.33;;;5.40;99.90;;;;;;5008421;28;20240;-61
2022/01/19 09:59:29;;;;;;;1.50;1.40;;;5.50;99.90;;;;;;5011147;28;20211;-62
2022/01/19 10:01:58;;;;;;;2.03;1.93;;;5.60;99.90;;;;;;5010940;28;20308;-61
2022/01/19 10:04:28;;;;;;;2.13;2.03;;;5.80;99.90;;;;;;5011348;28;20297;-62
2022/01/19 10:07:10;;;;;;;1.80;1.70;;;6.00;99.90;;;;;;5008128;28;20292;-61
2022/01/19 10:09:56;;;;;;;2.07;1.97;;;6.10;99.90;;;;;;5014276;28;21508;-61
2022/01/19 10:18:13;;;;;;;2.30;2.20;;;6.40;99.90;;;;;;5011376;28;20235;-63
2022/01/19 10:20:41;;;;;;;1.67;1.57;;;6.50;99.90;;;;;;5012976;28;20327;-63
2022/01/19 10:23:33;;;;;;;1.70;1.60;;;6.50;99.90;;;;;;5013831;28;20301;-63
2022/01/19 10:26:01;;;;;;;2.00;1.90;;;6.60;99.90;;;;;;5011751;28;20289;-63
2022/01/19 10:28:29;;;;;;;1.97;1.87;;;6.60;99.90;;;;;;5013000;28;20581;-62
2022/01/19 10:30:56;;;;;;;2.10;2.00;;;6.70;99.90;;;;;;5014121;28;20235;-62
2022/01/19 10:33:23;;;;;;;2.30;2.20;;;6.80;99.90;;;;;;5014470;28;20253;-63
2022/01/19 10:35:50;;;;;;;2.40;2.30;;;6.70;99.90;;;;;;5012075;28;20304;-62
2022/01/19 10:38:19;;;;;;;2.20;2.10;;;6.60;99.90;;;;;;5013776;28;20507;-62
2022/01/19 10:41:12;;;;;;;2.50;2.40;;;6.60;99.90;;;;;;5012609;28;20224;-63
2022/01/19 10:43:42;;;;;;;2.30;2.20;;;6.80;99.90;;;;;;5010991;28;20276;-62
2022/01/19 10:46:27;;;;;;;2.50;2.40;;;7.00;99.90;;;;;;5006430;28;20208;-62
2022/01/19 10:49:00;;;;;;;2.50;2.40;;;7.10;99.90;;;;;;5007071;28;20200;-63
2022/01/19 10:51:31;;;;;;;2.60;2.50;;;7.20;99.90;;;;;;5001773;28;20226;-62
2022/01/19 10:54:13;;;;;;;2.33;2.23;;;7.20;99.90;;;;;;5007810;28;20301;-62
2022/01/19 10:56:43;;;;;;;2.60;2.50;;;7.20;99.90;;;;;;5011805;28;20296;-62
2022/01/19 10:59:15;;;;;;;2.50;2.40;;;7.20;99.90;;;;;;5009323;28;20285;-61
2022/01/19 11:01:45;;;;;;;2.63;2.53;;;7.20;99.90;;;;;;5003770;28;20251;-61
2022/01/19 11:04:27;;;;;;;2.60;2.50;;;7.20;99.90;;;;;;5003359;28;20633;-61
2022/01/19 11:06:58;;;;;;;2.60;2.50;;;7.10;99.90;;;;;;5001816;28;20240;-62
2022/01/19 11:09:27;;;;;;;2.50;2.40;;;7.00;99.90;;;;;;5004800;28;22006;-60
2022/01/19 11:11:58;;;;;;;2.50;2.40;;;6.90;99.90;;;;;;5003076;28;20230;-61
2022/01/19 11:14:26;;;;;;;2.80;2.60;;;6.90;99.90;;;;;;5004762;28;20225;-63
2022/01/19 11:16:53;;;;;;;2.50;2.40;;;7.00;99.90;;;;;;5008903;28;20292;-62
2022/01/19 11:19:21;;;;;;;2.87;2.67;;;7.20;99.90;;;;;;5005605;28;20691;-60
2022/01/19 11:21:59;;;;;;;2.60;2.50;;;7.40;99.90;;;;;;5005285;28;20249;-65
2022/01/19 11:24:34;;;;;;;2.40;2.30;;;7.30;99.90;;;;;;5009412;28;20258;-61
2022/01/19 11:27:03;;;;;;;2.60;2.50;;;7.30;99.90;;;;;;5005020;28;20510;-61
2022/01/19 11:29:32;;;;;;;2.70;2.60;;;7.40;99.90;;;;;;5010276;28;20284;-61
2022/01/19 11:32:12;;;;;;;2.20;2.10;;;7.30;99.90;;;;;;5004650;28;20237;-62
2022/01/19 11:34:45;;;;;;;2.60;2.50;;;7.20;99.90;;;;;;4999374;28;20693;-62
2022/01/19 11:37:12;;;;;;;2.63;2.53;;;7.10;99.90;;;;;;5002871;28;20577;-62
2022/01/19 11:39:59;;;;;;;2.20;2.10;;;7.00;99.90;;;;;;5005079;28;20197;-62
2022/01/19 11:42:28;;;;;;;2.40;2.30;;;6.90;99.90;;;;;;5002187;28;20205;-61
2022/01/19 11:44:55;;;;;;;2.57;2.47;;;6.80;99.90;;;;;;5000667;28;20294;-61
2022/01/19 11:47:25;;;;;;;2.60;2.50;;;6.70;99.90;;;;;;5003055;28;20240;-62
2022/01/19 11:49:55;;;;;;;2.80;2.70;;;6.70;99.90;;;;;;4996868;28;20257;-61
2022/01/19 11:52:25;;;;;;;2.80;2.60;;;6.60;99.90;;;;;;4996823;28;20213;-62
2022/01/19 11:55:09;;;;;;;2.60;2.50;;;6.70;99.90;;;;;;5003330;28;20229;-62
2022/01/19 11:57:37;;;;;;;2.77;2.60;;;6.70;99.90;;;;;;5005537;28;20216;-62
2022/01/19 12:00:09;;;;;;;2.80;2.60;;;6.90;99.90;;;;;;5002134;28;20249;-62
2022/01/19 12:02:39;;;;;;;2.83;2.67;;;6.80;99.90;;;;;;5011403;28;20221;-61
2022/01/19 12:05:20;;;;;;;2.80;2.70;;;7.00;99.90;;;;;;5014824;28;20623;-61
2022/01/19 12:07:50;;;;;;;2.43;2.33;;;7.10;99.90;;;;;;5029918;28;20205;-62
2022/01/19 12:10:23;;;;;;;2.70;2.60;;;7.20;99.90;;;;;;5017294;28;20237;-62
2022/01/19 12:19:39;;;;;;;2.90;2.80;;;7.00;99.90;;;;;;4981986;28;20209;-63
2022/01/19 12:22:12;;;;;;;3.30;3.10;;;7.00;99.90;;;;;;5008368;28;20227;-61
2022/01/19 12:24:44;;;;;;;2.60;2.50;;;7.20;99.90;;;;;;5018673;28;20312;-63
2022/01/19 12:27:27;;;;;;;3.03;2.83;;;7.20;99.90;;;;;;5015916;28;20933;-63
2022/01/19 12:30:07;;;;;;;3.20;3.00;;;7.30;99.90;;;;;;5013610;28;20296;-61
2022/01/19 12:32:48;;;;;;;3.00;2.80;;;7.20;99.90;;;;;;5011240;28;20235;-63
2022/01/19 12:35:21;;;;;;;3.23;3.03;;;7.10;99.90;;;;;;5004442;28;20209;-63
2022/01/19 12:37:50;;;;;;;3.10;2.90;;;7.20;99.90;;;;;;5006627;28;20201;-62
2022/01/19 12:40:35;;;;;;;3.10;2.90;;;7.10;99.90;;;;;;5002902;28;20564;-63
2022/01/19 12:43:05;;;;;;;3.10;3.00;;;7.10;99.90;;;;;;4996332;28;20260;-61
2022/01/19 12:45:34;;;;;;;3.27;3.07;;;7.00;99.90;;;;;;5007816;28;20214;-62
2022/01/19 12:48:04;;;;;;;3.63;3.43;;;7.00;99.90;;;;;;5009692;28;20724;-62
2022/01/19 12:50:46;;;;;;;3.33;3.13;;;6.90;99.90;;;;;;5008784;28;20222;-62
2022/01/19 12:53:25;;;;;;;3.03;2.93;;;6.80;99.90;;;;;;5004412;28;20214;-63
2022/01/19 12:55:56;;;;;;;3.40;3.20;;;6.80;99.90;;;;;;5006182;28;20245;-63
2022/01/19 12:58:29;;;;;;;4.00;3.70;;;6.80;99.90;;;;;;5003595;28;20665;-62
2022/01/19 13:00:59;;;;;;;3.70;3.50;;;6.80;99.90;;;;;;5005894;28;20617;-64
2022/01/19 13:03:32;;;;;;;3.67;3.47;;;6.90;99.90;;;;;;5011699;28;20652;-64
2022/01/19 13:06:03;;;;;;;3.27;3.07;;;6.90;99.90;;;;;;5002573;28;20269;-62
2022/01/19 13:08:34;;;;;;;3.40;3.20;;;6.80;99.90;;;;;;5007996;28;20308;-61
2022/01/19 13:11:06;;;;;;;3.60;3.40;;;6.70;99.90;;;;;;5008014;28;20230;-62
2022/01/19 13:13:50;;;;;;;3.23;3.10;;;6.70;99.90;;;;;;5012070;28;20236;-62
2022/01/19 13:16:28;;;;;;;3.27;3.07;;;6.70;99.90;;;;;;5006172;28;20213;-61
2022/01/19 13:19:02;;;;;;;3.43;3.23;;;6.70;99.90;;;;;;5008423;28;20296;-62
2022/01/19 13:21:29;;;;;;;3.40;3.20;;;6.90;99.90;;;;;;5007590;28;20230;-61
2022/01/19 13:23:59;;;;;;;3.27;3.07;;;6.80;99.90;;;;;;5006232;28;20198;-61
2022/01/19 13:26:35;;;;;;;2.73;2.63;;;6.80;99.90;;;;;;5014156;28;20237;-62
2022/01/19 13:29:26;;;;;;;3.50;3.30;;;6.70;99.90;;;;;;5014458;28;20228;-61
2022/01/19 13:32:06;;;;;;;3.07;2.87;;;6.80;99.90;;;;;;5015509;28;20236;-61
2022/01/19 13:34:49;;;;;;;3.20;3.00;;;6.70;99.90;;;;;;5009376;28;20880;-61
2022/01/19 13:37:16;;;;;;;2.83;2.73;;;6.70;99.90;;;;;;5010135;28;20213;-60
2022/01/19 13:39:43;;;;;;;2.90;2.70;;;6.60;99.90;;;;;;5004826;28;20227;-61
2022/01/19 13:42:11;;;;;;;3.40;3.20;;;6.60;99.90;;;;;;5005459;28;20265;-61
2022/01/19 13:44:47;;;;;;;2.97;2.83;;;6.60;99.90;;;;;;5013169;28;20244;-61
2022/01/19 13:47:25;;;;;;;2.70;2.60;;;6.60;99.90;;;;;;5016119;28;20448;-62
2022/01/19 13:49:54;;;;;;;3.30;3.10;;;6.60;99.90;;;;;;5018838;28;20193;-61
2022/01/19 13:52:23;;;;;;;3.17;2.97;;;6.60;99.90;;;;;;5017509;28;20225;-61
2022/01/19 13:54:51;;;;;;;3.17;2.97;;;6.60;99.90;;;;;;5013584;28;20271;-61
2022/01/19 13:57:28;;;;;;;2.97;2.87;;;6.60;99.90;;;;;;5012358;28;20213;-61
2022/01/19 13:59:55;;;;;;;3.23;3.03;;;6.70;99.90;;;;;;5011260;28;20205;-61
2022/01/19 14:02:23;;;;;;;2.60;2.50;;;6.60;99.90;;;;;;5009538;28;20296;-61
2022/01/19 14:04:56;;;;;;;3.07;2.90;;;6.70;99.90;;;;;;5010721;28;20630;-62
2022/01/19 14:07:23;;;;;;;2.73;2.63;;;6.70;99.90;;;;;;5019056;28;20205;-60
2022/01/19 14:09:50;;;;;;;2.90;2.70;;;6.70;99.90;;;;;;5021853;28;20308;-61
2022/01/19 14:12:19;;;;;;;2.70;2.60;;;6.80;99.90;;;;;;5022804;28;20621;-61
2022/01/19 14:14:54;;;;;;;2.30;2.20;;;6.70;99.90;;;;;;5012439;28;20304;-62
2022/01/19 14:17:26;;;;;;;2.80;2.70;;;6.80;99.90;;;;;;5013366;28;20197;-60
2022/01/19 14:19:57;;;;;;;2.50;2.40;;;6.70;99.90;;;;;;5011124;28;20202;-61
2022/01/19 14:22:26;;;;;;;2.43;2.33;;;6.70;99.90;;;;;;5016082;28;20297;-62
2022/01/19 14:25:03;;;;;;;2.20;2.10;;;6.70;99.90;;;;;;5017579;28;20221;-61